Time;durP1;ratioP1;P1;durP2;ratioP2;P2;SDS_P1;SDS_P2;PMS_P1;PMS_P2;Temp;Humidity;BMP_temperature;BMP_pressure;BME280_temperature;BME280_humidity;BME280_pressure;Samples;Min_cycle;Max_cycle;Signal;HPM_P1;HPM_P2
2022/08/11 00:00:11;;;;;;;3.80;2.80;;;23.80;93.70;;;24.03;43.04;101762.38;4982804;28;97783;-53
2022/08/11 00:02:46;;;;;;;3.40;2.80;;;23.80;92.50;;;24.01;42.91;101765.19;5005997;28;99852;-46
2022/08/11 00:05:18;;;;;;;2.80;2.57;;;23.80;92.40;;;23.97;43.47;101763.66;5012642;28;97517;-51
2022/08/11 00:07:56;;;;;;;2.07;1.90;;;23.70;92.90;;;23.92;44.45;101765.00;5009078;28;97321;-50
2022/08/11 00:10:28;;;;;;;2.30;1.83;;;23.70;94.50;;;23.93;43.87;101764.88;4990144;28;97432;-49
2022/08/11 00:13:02;;;;;;;4.03;2.80;;;23.70;93.90;;;23.92;44.90;101760.47;5007358;28;97279;-48
2022/08/11 00:15:45;;;;;;;2.90;1.90;;;23.70;93.40;;;23.93;44.46;101762.19;4980235;28;97402;-46
2022/08/11 00:18:12;;;;;;;1.70;1.60;;;23.70;94.70;;;23.91;45.14;101758.75;5003853;28;97157;-52
2022/08/11 00:20:43;;;;;;;2.20;2.00;;;23.70;95.00;;;23.93;46.00;101762.19;5007394;28;98797;-51
2022/08/11 00:23:12;;;;;;;2.07;1.93;;;23.70;95.40;;;23.92;44.18;101759.59;4983408;28;97219;-47
2022/08/11 00:25:42;;;;;;;1.70;1.60;;;23.70;94.40;;;23.91;45.09;101764.13;4986022;28;97210;-50
2022/08/11 00:28:33;;;;;;;2.83;1.40;;;23.70;95.00;;;23.92;44.81;101760.47;4991972;28;97388;-50
2022/08/11 00:31:04;;;;;;;2.50;2.00;;;23.70;94.80;;;23.92;46.34;101754.22;4999980;28;98593;-49
2022/08/11 00:33:43;;;;;;;2.50;2.30;;;23.70;94.70;;;23.93;45.69;101755.94;5000027;28;98383;-50
2022/08/11 00:36:17;;;;;;;2.67;2.30;;;23.70;93.80;;;23.91;45.01;101744.41;4980130;28;97536;-46
2022/08/11 00:38:45;;;;;;;5.23;3.37;;;23.70;93.40;;;23.89;44.11;101749.06;4997215;28;97327;-46
2022/08/11 00:41:28;;;;;;;3.67;2.37;;;23.60;93.80;;;23.88;44.68;101748.19;4990979;28;97699;-52
2022/08/11 00:44:24;;;;;;;2.13;1.83;;;23.60;93.20;;;23.87;45.27;101757.25;4982300;28;97520;-53
2022/08/11 00:47:16;;;;;;;3.60;2.10;;;23.60;93.80;;;23.84;45.25;101753.91;4998421;28;97341;-54
2022/08/11 00:50:39;;;;;;;1.77;1.63;;;23.60;94.10;;;23.82;45.77;101756.72;4975446;28;98620;-50
2022/08/11 00:53:45;;;;;;;2.67;1.60;;;23.60;95.50;;;23.82;46.86;101751.34;4989482;28;101850;-52
2022/08/11 00:56:35;;;;;;;1.60;1.50;;;23.60;94.90;;;23.82;46.58;101762.09;4958016;28;99860;-48
2022/08/11 00:59:32;;;;;;;4.00;2.50;;;23.60;95.80;;;23.81;44.63;101763.09;5015629;28;96687;-50
2022/08/11 01:01:58;;;;;;;1.70;1.60;;;23.50;93.50;;;23.78;46.86;101757.94;4988348;28;97538;-47
2022/08/11 01:04:56;;;;;;;3.27;1.90;;;23.50;95.20;;;23.80;46.03;101760.50;4991031;28;99245;-54
2022/08/11 01:08:12;;;;;;;1.50;1.40;;;23.50;95.20;;;23.79;46.55;101761.47;4991827;28;97214;-51
2022/08/11 01:10:53;;;;;;;1.90;1.73;;;23.50;96.10;;;23.74;46.46;101756.44;4993827;28;96911;-49
2022/08/11 01:13:36;;;;;;;2.60;1.87;;;23.50;95.90;;;23.72;46.57;101756.56;4979761;28;97029;-47
2022/08/11 01:16:37;;;;;;;3.60;2.83;;;23.40;95.20;;;23.73;47.06;101760.13;4998658;28;98243;-49
2022/08/11 01:19:48;;;;;;;1.73;1.63;;;23.40;95.70;;;23.71;47.02;101756.66;4975828;28;103317;-49
2022/08/11 01:23:09;;;;;;;2.23;2.03;;;23.40;95.60;;;23.70;46.91;101749.53;4951626;28;97552;-47
2022/08/11 01:26:00;;;;;;;1.73;1.63;;;23.40;95.70;;;23.66;46.97;101750.75;4993697;28;97092;-48
2022/08/11 01:28:57;;;;;;;3.33;2.60;;;23.40;95.60;;;23.69;47.02;101755.91;4999904;28;97167;-49
2022/08/11 01:32:05;;;;;;;4.07;2.70;;;23.40;93.90;;;23.66;46.38;101751.59;5001993;28;97433;-51
2022/08/11 01:35:26;;;;;;;2.17;1.97;;;23.40;93.40;;;23.65;46.62;101754.41;5010551;28;97124;-54
2022/08/11 01:38:30;;;;;;;1.73;1.63;;;23.40;93.70;;;23.62;45.88;101757.34;4992038;28;97441;-45
2022/08/11 01:41:20;;;;;;;2.77;2.17;;;23.30;95.90;;;23.60;46.63;101754.75;4999541;28;102920;-49
2022/08/11 01:50:31;;;;;;;1.70;1.60;;;23.40;96.60;;;23.63;45.52;101742.91;5002867;28;97499;-48
2022/08/11 01:53:34;;;;;;;2.80;2.40;;;23.40;95.60;;;23.61;47.33;101753.78;5002689;28;97439;-47
2022/08/11 01:56:29;;;;;;;2.03;1.93;;;23.30;94.00;;;23.59;44.40;101749.50;4998965;28;99737;-48
2022/08/11 01:59:18;;;;;;;4.00;2.27;;;23.20;93.40;;;23.56;47.41;101753.22;4997798;28;97208;-49
2022/08/11 02:02:12;;;;;;;4.30;3.13;;;23.20;95.00;;;23.56;47.18;101757.75;4979949;28;97229;-48
2022/08/11 02:05:03;;;;;;;1.93;1.50;;;23.20;94.70;;;23.55;46.38;101756.03;5004502;28;101741;-46
2022/08/11 02:08:09;;;;;;;1.63;1.53;;;23.20;95.10;;;23.54;45.32;101755.16;5002846;28;96928;-47
2022/08/11 02:14:06;;;;;;;1.80;1.70;;;23.10;96.90;;;23.53;48.20;101757.97;4979246;28;97610;-44
2022/08/11 02:16:58;;;;;;;1.90;1.80;;;23.20;97.00;;;23.55;48.15;101761.41;5009105;27;103453;-45
2022/08/11 02:25:58;;;;;;;4.73;3.37;;;23.20;97.20;;;23.53;46.68;101760.66;4980386;28;96853;-44
2022/08/11 02:28:58;;;;;;;1.80;1.70;;;23.20;93.60;;;23.55;48.05;101766.78;4990678;28;96908;-49
2022/08/11 02:35:27;;;;;;;2.77;2.20;;;23.30;97.10;;;23.54;45.28;101770.47;4984262;28;97197;-52
2022/08/11 02:38:29;;;;;;;2.20;2.00;;;23.20;94.20;;;23.53;48.36;101763.34;4978239;28;99569;-54
2022/08/11 02:44:43;;;;;;;2.03;1.83;;;23.20;96.60;;;23.49;48.28;101767.25;5010826;28;101044;-52
2022/08/11 02:47:31;;;;;;;5.57;2.27;;;23.20;97.10;;;23.50;47.44;101764.44;4984348;28;96881;-54
2022/08/11 02:50:19;;;;;;;1.97;1.87;;;23.20;95.40;;;23.49;48.37;101772.63;4986672;28;97188;-48
2022/08/11 02:52:58;;;;;;;2.23;2.03;;;23.20;97.30;;;23.50;48.24;101763.59;5001120;28;102809;-49
2022/08/11 02:55:36;;;;;;;1.77;1.67;;;23.20;96.80;;;23.51;46.89;101765.31;4984288;28;99050;-50
2022/08/11 02:58:16;;;;;;;1.60;1.50;;;23.20;95.30;;;23.52;48.13;101756.25;4991433;28;97589;-50
2022/08/11 03:01:27;;;;;;;2.30;2.10;;;23.20;97.20;;;23.55;48.24;101767.66;5005758;28;98504;-54
2022/08/11 03:04:06;;;;;;;2.27;2.00;;;23.30;97.40;;;23.55;47.95;101767.66;4994927;28;101837;-51
2022/08/11 03:06:58;;;;;;;1.67;1.43;;;23.30;97.10;;;23.54;47.91;101754.31;4991798;28;99600;-51
2022/08/11 03:09:43;;;;;;;2.30;2.10;;;23.30;96.40;;;23.55;47.22;101756.03;4987340;28;96976;-53
2022/08/11 03:18:25;;;;;;;1.70;1.60;;;23.30;94.10;;;23.49;48.05;101759.16;4997140;28;100991;-45
2022/08/11 03:21:21;;;;;;;1.97;1.87;;;23.20;96.40;;;23.51;48.52;101759.91;4993371;28;97105;-44
2022/08/11 03:24:08;;;;;;;1.93;1.80;;;23.20;97.50;;;23.51;47.76;101759.91;4989626;28;100363;-43
2022/08/11 03:26:58;;;;;;;2.10;1.90;;;23.20;96.10;;;23.50;48.37;101758.19;4991313;28;101570;-46
2022/08/11 03:30:20;;;;;;;2.00;1.90;;;23.20;97.20;;;23.50;48.33;101763.59;4980560;28;97169;-43
2022/08/11 03:36:27;;;;;;;2.20;1.93;;;23.10;95.80;;;23.47;48.08;101759.28;5010430;28;97400;-44
2022/08/11 03:39:07;;;;;;;1.70;1.60;;;23.10;97.10;;;23.47;47.67;101758.44;4998983;28;101669;-46
2022/08/11 03:42:26;;;;;;;1.93;1.83;;;23.10;95.10;;;23.48;48.16;101754.75;5002279;28;102147;-44
2022/08/11 03:45:39;;;;;;;1.90;1.80;;;23.10;97.20;;;23.45;48.16;101756.72;5008633;28;97212;-43
2022/08/11 03:48:32;;;;;;;2.57;2.37;;;23.10;96.40;;;23.44;48.21;101755.00;4959249;28;97489;-44
2022/08/11 03:51:24;;;;;;;2.27;2.07;;;23.10;96.00;;;23.45;48.48;101762.09;5002793;28;100404;-46
2022/08/11 03:54:15;;;;;;;2.70;2.00;;;23.10;97.50;;;23.47;48.40;101753.91;4983862;28;101217;-45
2022/08/11 03:56:55;;;;;;;2.47;2.27;;;23.20;97.50;;;23.45;48.51;101754.03;4976979;28;97227;-44
2022/08/11 04:00:09;;;;;;;3.10;2.70;;;23.20;97.50;;;23.45;46.79;101756.72;4975713;28;96694;-43
2022/08/11 04:03:06;;;;;;;2.60;2.40;;;23.10;95.10;;;23.44;48.43;101764.91;4996369;28;103222;-44
2022/08/11 04:06:24;;;;;;;1.90;1.80;;;23.10;97.80;;;23.44;48.65;101759.53;5000084;28;99792;-44
2022/08/11 04:09:05;;;;;;;2.13;1.93;;;23.10;97.50;;;23.44;48.24;101762.22;4991717;28;97130;-47
2022/08/11 04:12:01;;;;;;;2.00;1.90;;;23.10;96.20;;;23.44;47.65;101760.38;4996820;28;97177;-47
2022/08/11 04:18:01;;;;;;;4.53;3.63;;;23.10;96.10;;;23.36;46.99;101760.06;4997922;28;101427;-44
2022/08/11 04:21:07;;;;;;;2.40;2.20;;;23.00;94.20;;;23.39;48.55;101761.66;5000066;28;97152;-45
2022/08/11 04:24:05;;;;;;;2.33;2.13;;;23.00;97.20;;;23.38;48.69;101759.94;4999881;28;97544;-46
2022/08/11 04:27:24;;;;;;;2.30;1.97;;;23.00;97.30;;;23.40;48.64;101758.84;4991978;28;97987;-46
2022/08/11 04:30:22;;;;;;;2.87;1.93;;;23.10;97.80;;;23.38;48.38;101760.81;5005807;28;101624;-46
2022/08/11 04:33:33;;;;;;;2.37;2.07;;;23.10;96.40;;;23.39;48.25;101761.66;4978359;28;96936;-47
2022/08/11 04:39:55;;;;;;;3.53;2.00;;;23.10;97.40;;;23.37;48.64;101764.47;4984019;28;101450;-44
2022/08/11 04:46:11;;;;;;;3.23;2.23;;;23.00;96.70;;;23.36;48.54;101765.44;5008431;28;97020;-45
2022/08/11 05:01:54;;;;;;;2.50;2.27;;;23.00;96.40;;;23.31;48.49;101770.31;5000448;28;99161;-44
2022/08/11 05:08:39;;;;;;;3.20;2.40;;;22.90;96.50;;;23.33;48.84;101767.50;4993260;28;101136;-45
2022/08/11 05:11:24;;;;;;;2.87;2.67;;;22.90;97.20;;;23.34;48.93;101775.47;5001528;28;97332;-46
2022/08/11 05:37:10;;;;;;;6.33;3.60;;;23.10;97.60;;;23.44;48.48;101792.69;5006565;28;97433;-46
2022/08/11 05:56:53;;;;;;;4.73;3.67;;;22.90;94.70;;;23.27;47.16;101795.69;4983680;28;97349;-48
2022/08/11 05:59:20;;;;;;;3.17;2.57;;;22.80;95.00;;;23.28;48.40;101797.41;4980800;28;97252;-46
2022/08/11 06:01:47;;;;;;;8.23;4.10;;;22.90;96.50;;;23.31;46.96;101799.91;4992614;28;99540;-46
2022/08/11 06:04:21;;;;;;;4.13;2.80;;;22.90;94.40;;;23.32;49.00;101798.94;5004786;28;103128;-48
2022/08/11 06:06:56;;;;;;;3.53;2.87;;;22.90;97.90;;;23.34;48.63;101797.00;4993287;28;97297;-45
2022/08/11 06:09:24;;;;;;;5.50;4.20;;;23.00;96.10;;;23.35;46.13;101792.47;4981374;28;102289;-45
2022/08/11 06:11:51;;;;;;;4.33;3.00;;;23.00;94.40;;;23.37;48.11;101796.78;4994361;28;97233;-49
2022/08/11 06:14:18;;;;;;;7.40;4.33;;;23.00;96.40;;;23.38;44.77;101793.09;5002883;28;99185;-47
2022/08/11 06:16:49;;;;;;;2.83;2.63;;;23.00;94.00;;;23.43;48.86;101795.47;4992917;28;97456;-45
2022/08/11 06:19:20;;;;;;;2.57;2.37;;;23.10;97.80;;;23.44;48.70;101798.06;4990690;28;97191;-46
2022/08/11 06:21:47;;;;;;;6.20;4.73;;;23.20;97.80;;;23.49;43.63;101794.19;4986458;28;97420;-46
2022/08/11 06:24:16;;;;;;;2.50;2.30;;;23.20;93.90;;;23.52;48.55;101793.94;4978610;28;97249;-49
2022/08/11 06:26:50;;;;;;;2.43;2.23;;;23.30;97.70;;;23.57;46.96;101791.78;4994101;28;97249;-49
2022/08/11 06:29:17;;;;;;;3.40;2.67;;;23.30;95.50;;;23.58;48.22;101789.03;5001708;28;97113;-53
2022/08/11 06:31:59;;;;;;;2.63;2.43;;;23.30;96.90;;;23.64;48.47;101793.09;4974553;28;97486;-49
2022/08/11 06:34:52;;;;;;;3.83;3.50;;;23.40;97.60;;;23.67;48.34;101792.88;5006658;28;97338;-50
2022/08/11 06:37:45;;;;;;;7.73;4.20;;;23.40;96.90;;;23.72;47.63;101790.69;4992660;28;99268;-51
2022/08/11 06:44:09;;;;;;;4.03;2.93;;;23.60;97.10;;;23.76;47.79;101792.22;4990366;28;102167;-52
2022/08/11 06:46:41;;;;;;;2.97;2.67;;;23.60;96.50;;;23.75;47.67;101795.88;4981479;28;101555;-56
2022/08/11 06:51:10;;;;;;;2.53;2.33;;;23.60;96.60;;;23.71;48.02;101794.34;5006918;28;97654;-48
2022/08/11 06:52:01;;;;;;;3.83;2.95;;;23.60;97.20;;;23.76;48.27;101797.59;4990581;28;97202;-50
2022/08/11 06:54:33;;;;;;;6.50;3.63;;;23.60;97.30;;;23.83;46.62;101792.59;4967096;28;97288;-53
2022/08/11 07:02:44;;;;;;;2.90;2.60;;;23.70;92.00;;;23.91;46.96;101785.69;4985076;28;97094;-52
2022/08/11 07:05:30;;;;;;;7.15;4.13;;;23.80;96.40;;;23.96;40.91;101786.19;5005298;28;97451;-52
2022/08/11 07:28:54;;;;;;;3.47;2.65;;;23.80;96.60;;;23.93;47.37;101791.81;4999926;28;101578;-48
2022/08/11 07:28:56;;;;;;;6.78;3.67;;;23.90;91.80;;;24.06;45.91;101782.81;4992105;28;96994;-52
2022/08/11 07:31:39;;;;;;;6.10;3.55;;;23.90;95.00;;;24.10;42.70;101779.78;4983368;28;97325;-49
2022/08/11 07:34:23;;;;;;;3.70;2.85;;;23.90;94.30;;;24.10;46.15;101778.91;4999451;27;96970;-52
2022/08/11 07:36:56;;;;;;;3.17;2.80;;;24.00;95.40;;;24.03;47.15;101779.41;4995882;28;97153;-52
2022/08/11 07:39:30;;;;;;;2.92;2.63;;;23.90;96.30;;;24.05;46.26;101781.97;4987913;28;97396;-50
2022/08/11 07:41:58;;;;;;;2.78;2.58;;;23.90;95.80;;;23.98;47.21;101776.16;5009524;28;97624;-50
2022/08/11 07:44:29;;;;;;;2.63;2.40;;;23.90;96.40;;;23.84;47.80;101779.00;4981107;28;97626;-50
2022/08/11 07:52:33;;;;;;;6.28;3.20;;;23.80;96.80;;;23.98;44.31;101770.78;5009586;28;97324;-52
2022/08/11 07:55:15;;;;;;;2.60;2.40;;;23.90;92.80;;;24.01;47.53;101765.19;4996669;28;97256;-48
2022/08/11 08:19:54;;;;;;;3.22;2.60;;;24.30;93.80;;;24.25;46.45;101766.97;5006398;28;97144;-46
2022/08/11 08:22:21;;;;;;;3.00;2.63;;;24.20;95.70;;;24.22;46.91;101767.22;4998361;28;104440;-49
2022/08/11 08:24:47;;;;;;;5.82;3.10;;;24.20;96.10;;;24.21;46.93;101771.75;5014214;28;97226;-48
2022/08/11 08:27:14;;;;;;;2.92;2.72;;;24.10;96.10;;;24.11;47.30;101775.25;5000758;28;97092;-45
2022/08/11 08:32:28;;;;;;;3.67;3.20;;;24.00;96.30;;;24.08;47.42;101770.09;4984102;28;97733;-51
2022/08/11 08:34:55;;;;;;;2.85;2.65;;;24.00;96.50;;;24.12;46.82;101771.56;5010504;27;108114;-45
2022/08/11 08:37:24;;;;;;;3.55;2.85;;;24.10;96.20;;;24.10;46.76;101773.53;4987945;28;97190;-48
2022/08/11 08:39:51;;;;;;;2.70;2.50;;;24.00;95.30;;;23.95;47.49;101771.00;5005817;28;96883;-50
2022/08/11 08:42:26;;;;;;;3.83;3.08;;;23.90;96.40;;;24.17;39.03;101764.88;5005194;28;97474;-49
2022/08/11 08:45:17;;;;;;;2.72;2.53;;;24.00;90.40;;;24.45;38.66;101771.75;4989418;28;97197;-49
2022/08/11 08:48:14;;;;;;;3.58;2.75;;;24.40;91.00;;;24.61;38.13;101766.91;5001392;28;103538;-53
2022/08/11 08:53:52;;;;;;;5.80;2.90;;;24.90;91.30;;;24.80;41.36;101769.03;4979549;28;101829;-53
2022/08/11 08:56:24;;;;;;;4.10;3.08;;;24.80;92.50;;;24.87;43.81;101774.78;4989537;28;97488;-49
2022/08/11 08:58:50;;;;;;;3.55;2.50;;;24.90;92.80;;;24.99;43.15;101768.44;4987245;28;97257;-47
2022/08/11 09:01:17;;;;;;;3.90;2.50;;;25.00;92.00;;;24.89;42.12;101775.56;4992357;28;96925;-51
2022/08/11 09:03:43;;;;;;;4.22;2.60;;;24.90;90.80;;;24.87;41.23;101775.66;5004907;28;100380;-47
2022/08/11 09:06:10;;;;;;;3.63;2.80;;;24.90;90.40;;;24.79;42.58;101782.63;4996764;28;97340;-49
2022/08/11 09:08:38;;;;;;;3.45;2.30;;;24.80;92.90;;;24.79;44.59;101771.84;4988071;28;98707;-51
2022/08/11 09:13:52;;;;;;;3.38;2.60;;;24.60;94.30;;;24.82;44.38;101771.59;4970118;28;100440;-49
2022/08/11 09:16:18;;;;;;;5.18;2.85;;;24.80;93.00;;;24.79;38.75;101767.31;4988944;28;102945;-51
2022/08/11 09:18:46;;;;;;;2.70;2.50;;;24.80;88.30;;;24.54;44.82;101773.75;5014336;28;96876;-54
2022/08/11 09:21:14;;;;;;;2.58;2.38;;;24.60;93.90;;;24.34;45.87;101774.41;4973819;28;96888;-46
2022/08/11 09:29:12;;;;;;;3.42;3.13;;;24.20;95.00;;;24.30;46.16;101767.50;4987442;28;97060;-50
2022/08/11 09:31:38;;;;;;;7.13;2.72;;;24.30;95.10;;;24.34;45.78;101766.31;5004777;28;96609;-49
2022/08/11 09:34:05;;;;;;;3.33;2.55;;;24.30;95.10;;;24.52;40.19;101754.13;4998195;28;98034;-51
2022/08/11 09:42:04;;;;;;;3.05;2.85;;;24.30;95.00;;;24.10;46.51;101760.06;5002487;28;97622;-45
2022/08/11 09:44:48;;;;;;;2.70;2.50;;;24.20;95.30;;;24.04;46.78;101767.63;4977933;28;98099;-47
2022/08/11 09:47:27;;;;;;;4.32;2.70;;;24.10;95.70;;;24.14;46.60;101764.22;4988970;28;97506;-47
2022/08/11 09:49:58;;;;;;;3.25;2.70;;;24.10;95.60;;;24.17;46.58;101758.63;4987887;28;97062;-44
2022/08/11 09:52:25;;;;;;;3.05;2.42;;;24.10;95.60;;;24.21;42.17;101760.13;4989193;28;97074;-49
2022/08/11 09:54:52;;;;;;;2.70;2.50;;;24.20;92.40;;;24.28;45.46;101756.81;4983690;28;97291;-48
2022/08/11 10:00:10;;;;;;;2.97;2.78;;;24.20;95.20;;;24.04;46.58;101759.56;4997390;28;97022;-48
2022/08/11 10:02:47;;;;;;;2.95;2.30;;;24.10;95.40;;;23.91;47.00;101747.97;5004927;28;97576;-49
2022/08/11 10:08:04;;;;;;;2.50;2.30;;;23.80;95.90;;;23.95;46.82;101741.38;5004051;28;97395;-50
2022/08/11 10:10:35;;;;;;;2.70;2.50;;;23.90;95.70;;;23.86;47.05;101744.72;4995343;28;97251;-49
2022/08/11 10:13:08;;;;;;;3.35;2.55;;;23.90;95.70;;;23.78;47.34;101743.59;4989645;28;96916;-52
2022/08/11 10:15:37;;;;;;;2.70;2.50;;;23.80;95.80;;;23.88;46.98;101741.94;4982688;28;101055;-47
2022/08/11 10:21:06;;;;;;;3.05;2.85;;;23.90;95.90;;;23.71;47.36;101737.78;4998317;28;97427;-46
2022/08/11 10:33:58;;;;;;;5.80;2.70;;;23.70;96.10;;;23.71;47.23;101724.31;4997503;28;97219;-48
2022/08/11 10:34:45;;;;;;;4.65;2.63;;;23.90;95.70;;;23.97;46.42;101720.53;4995724;28;97074;-52
2022/08/11 10:37:11;;;;;;;2.83;2.40;;;23.90;95.60;;;23.99;46.32;101718.59;4988721;28;97426;-53
2022/08/11 10:39:39;;;;;;;2.88;2.67;;;24.00;95.50;;;23.83;47.02;101709.94;5005366;28;97494;-54
2022/08/11 10:44:53;;;;;;;2.88;2.67;;;23.70;95.90;;;23.66;47.20;101718.44;5015708;28;97409;-44
2022/08/11 10:47:35;;;;;;;2.70;2.42;;;23.70;95.80;;;24.05;45.98;101709.19;4988516;28;97078;-47
2022/08/11 10:58:48;;;;;;;3.10;2.80;;;23.80;95.60;;;23.69;46.90;101699.34;5002473;28;97212;-47
2022/08/11 11:01:26;;;;;;;3.92;2.88;;;23.80;95.60;;;23.61;46.91;101688.28;4994807;28;97271;-48
2022/08/11 11:04:47;;;;;;;2.97;2.67;;;23.70;95.60;;;23.69;46.79;101685.88;4998900;28;97431;-49
2022/08/11 11:07:21;;;;;;;2.63;2.42;;;23.70;95.70;;;23.59;47.31;101688.41;4895418;28;97966;-48
2022/08/11 11:09:49;;;;;;;2.72;2.53;;;23.70;95.70;;;23.56;47.15;101687.72;4989541;28;97696;-50
2022/08/11 11:18:17;;;;;;;2.72;2.50;;;23.90;95.30;;;23.65;46.70;101676.31;5014061;28;97270;-49
2022/08/11 11:20:49;;;;;;;3.20;2.92;;;23.80;95.50;;;23.81;46.33;101671.50;4984257;28;101254;-54
2022/08/11 11:23:24;;;;;;;2.40;2.22;;;23.80;95.40;;;23.80;46.41;101669.78;5002499;28;96857;-51
2022/08/11 11:26:26;;;;;;;4.28;3.00;;;23.90;95.40;;;24.18;45.14;101663.31;4987053;28;97715;-53
2022/08/11 11:29:28;;;;;;;2.67;2.50;;;24.20;94.40;;;24.05;45.66;101663.38;4993468;28;96902;-50
2022/08/11 11:32:24;;;;;;;5.20;3.10;;;24.10;94.70;;;24.03;45.69;101655.44;4998720;28;101652;-51
2022/08/11 11:35:15;;;;;;;3.67;2.63;;;24.00;95.00;;;24.10;45.83;101652.25;4993416;28;102285;-50
2022/08/11 11:37:45;;;;;;;4.75;2.70;;;24.10;95.00;;;24.24;44.83;101642.13;5002091;28;97245;-53
2022/08/11 11:40:15;;;;;;;2.65;2.38;;;24.20;93.50;;;24.52;44.07;101645.38;5004946;28;97805;-49
2022/08/11 11:42:44;;;;;;;2.58;2.38;;;24.60;92.80;;;24.35;44.62;101640.47;5001466;28;96721;-48
2022/08/11 11:45:14;;;;;;;2.88;2.58;;;24.50;93.70;;;24.23;44.94;101648.50;5001440;28;97169;-54
2022/08/11 11:47:41;;;;;;;2.65;2.45;;;24.30;94.00;;;24.10;45.46;101639.63;4986297;28;96792;-52
2022/08/11 11:50:08;;;;;;;2.88;2.67;;;24.20;94.40;;;23.89;46.13;101639.44;4986006;28;97544;-52
2022/08/11 11:52:35;;;;;;;3.55;2.70;;;24.00;94.80;;;24.08;45.78;101638.03;4986889;28;101912;-51
2022/08/11 11:55:03;;;;;;;4.82;3.08;;;24.10;94.90;;;24.14;45.30;101634.84;5004251;28;97011;-48
2022/08/11 12:03:09;;;;;;;4.03;3.15;;;24.00;95.00;;;24.17;35.45;101626.56;4991294;28;97737;-50
2022/08/11 12:05:37;;;;;;;4.50;3.00;;;24.10;85.20;;;24.19;44.97;101616.50;5001845;28;101366;-54
2022/08/11 12:08:14;;;;;;;2.92;2.50;;;24.20;94.30;;;23.93;45.79;101622.06;4996767;28;98178;-46
2022/08/11 12:13:49;;;;;;;2.92;2.63;;;23.90;94.00;;;24.02;45.51;101604.34;5001599;28;101696;-49
2022/08/11 12:16:17;;;;;;;2.83;2.63;;;24.10;94.60;;;23.76;46.28;101603.66;4981224;28;97323;-51
2022/08/11 12:18:47;;;;;;;2.80;2.60;;;23.90;95.00;;;23.61;46.40;101607.50;4986587;28;99470;-49
2022/08/11 12:21:15;;;;;;;2.92;2.60;;;23.70;95.00;;;23.64;46.19;101599.19;5002002;28;97477;-44
2022/08/11 12:29:18;;;;;;;3.25;2.95;;;23.90;94.40;;;24.01;45.11;101595.41;4985012;28;97076;-54
2022/08/11 12:31:45;;;;;;;2.65;2.45;;;24.10;94.40;;;24.12;44.73;101585.59;5004226;28;97511;-52
2022/08/11 12:34:16;;;;;;;3.47;2.65;;;24.10;94.20;;;24.21;44.74;101592.97;5001211;28;97521;-47
2022/08/11 12:36:48;;;;;;;2.58;2.38;;;24.10;94.30;;;24.12;45.24;101582.91;4987694;28;97897;-53
2022/08/11 12:45:26;;;;;;;3.00;2.70;;;24.20;94.50;;;23.84;45.82;101585.03;5002143;28;97111;-48
2022/08/11 12:53:27;;;;;;;2.80;2.58;;;23.70;95.20;;;23.66;46.24;101564.91;4993931;28;97419;-51
2022/08/11 12:58:50;;;;;;;3.20;2.97;;;23.70;95.10;;;23.82;46.07;101562.75;4996373;28;101035;-55
2022/08/11 13:06:51;;;;;;;3.38;2.80;;;23.80;95.00;;;23.83;46.19;101550.13;4978867;28;100423;-50
2022/08/11 13:09:19;;;;;;;3.00;2.65;;;23.90;95.00;;;23.83;45.83;101556.38;4995067;28;97154;-54
2022/08/11 13:14:32;;;;;;;3.22;2.92;;;23.90;94.90;;;23.93;45.84;101546.63;4984873;28;97037;-55
2022/08/11 13:17:33;;;;;;;3.00;2.80;;;23.90;95.00;;;23.75;46.10;101553.44;4979399;28;103635;-53
2022/08/11 13:19:52;;;;;;;2.42;2.28;;;23.80;94.90;;;23.77;45.83;101545.25;4993335;28;102463;-50
2022/08/11 13:22:20;;;;;;;2.92;2.72;;;23.80;94.80;;;23.78;45.67;101547.81;4990181;28;97224;-48
2022/08/11 13:24:48;;;;;;;2.97;2.72;;;23.90;94.70;;;23.81;45.88;101535.94;4980421;28;97447;-50
2022/08/11 13:27:17;;;;;;;3.25;2.95;;;23.90;94.80;;;23.73;45.89;101539.25;5005919;28;97061;-52
2022/08/11 13:29:45;;;;;;;2.97;2.70;;;23.90;94.60;;;23.69;45.59;101535.03;5002594;28;96934;-46
2022/08/11 13:32:14;;;;;;;3.00;2.70;;;23.80;94.30;;;23.87;45.23;101533.66;4989179;28;96818;-45
2022/08/11 13:34:41;;;;;;;3.00;2.80;;;24.00;94.30;;;24.07;45.16;101528.53;4989342;28;96772;-47
2022/08/11 13:37:13;;;;;;;4.05;2.97;;;24.10;94.20;;;24.35;44.44;101517.28;5005410;28;96808;-46
2022/08/11 13:39:46;;;;;;;2.80;2.60;;;24.40;93.70;;;24.55;43.68;101516.53;4987937;28;101962;-52
2022/08/11 13:42:15;;;;;;;5.43;3.38;;;24.70;93.20;;;24.72;43.25;101514.31;4983061;28;97303;-46
2022/08/11 13:44:41;;;;;;;3.45;3.15;;;24.90;92.70;;;24.89;38.03;101506.56;5003706;28;97223;-53
2022/08/11 13:47:12;;;;;;;2.95;2.75;;;25.00;88.10;;;24.52;44.12;101508.69;4980230;28;97505;-54
2022/08/11 13:49:40;;;;;;;3.00;2.80;;;24.90;92.90;;;24.37;43.89;101512.63;5004048;28;101260;-47
2022/08/11 13:52:11;;;;;;;2.78;2.55;;;24.60;93.00;;;24.19;44.42;101514.06;4986892;28;96836;-50
2022/08/11 13:54:41;;;;;;;3.88;3.15;;;24.40;93.30;;;24.36;44.14;101515.44;4980768;28;97554;-51
2022/08/11 13:57:11;;;;;;;5.13;2.97;;;24.50;93.40;;;24.84;42.81;101505.22;4979636;28;98742;-48
2022/08/11 13:59:38;;;;;;;2.80;2.60;;;24.90;91.90;;;24.60;43.83;101508.94;4984636;28;101118;-48
2022/08/11 14:02:11;;;;;;;4.82;2.88;;;24.90;92.80;;;24.73;43.37;101502.53;5013837;28;97017;-51
2022/08/11 14:04:43;;;;;;;3.38;2.70;;;24.90;92.80;;;24.67;43.75;101501.19;4994884;28;97385;-52
2022/08/11 14:07:10;;;;;;;2.80;2.60;;;24.80;92.90;;;24.71;43.61;101501.78;4997468;28;97458;-52
2022/08/11 14:09:42;;;;;;;3.63;3.33;;;24.80;93.00;;;24.86;42.94;101489.75;4996122;28;97009;-50
2022/08/11 14:15:19;;;;;;;3.00;2.70;;;25.20;92.50;;;25.03;43.12;101486.56;5011877;28;97050;-51
2022/08/11 14:17:55;;;;;;;3.28;3.00;;;25.20;92.40;;;24.87;43.64;101494.16;4991013;28;101462;-47
2022/08/11 14:20:22;;;;;;;4.20;2.92;;;25.00;92.70;;;24.93;43.28;101478.31;5011148;28;97582;-51
2022/08/11 14:22:50;;;;;;;3.17;2.88;;;25.00;92.70;;;24.70;43.90;101487.44;5000081;28;97414;-44
2022/08/11 14:25:16;;;;;;;2.80;2.60;;;24.90;92.90;;;24.71;43.40;101472.13;4993450;28;97712;-45
2022/08/11 14:27:48;;;;;;;3.33;2.58;;;24.80;93.20;;;24.82;43.07;101469.41;4995111;28;97924;-49
2022/08/11 14:32:59;;;;;;;4.35;2.90;;;24.70;92.90;;;24.84;43.28;101467.44;5000725;28;97289;-56
2022/08/11 14:35:27;;;;;;;3.50;3.20;;;24.90;93.20;;;24.85;43.15;101461.91;5006302;28;97269;-52
2022/08/11 14:37:54;;;;;;;6.30;2.90;;;24.90;92.80;;;25.06;42.70;101467.41;4990971;28;97466;-52
2022/08/11 14:48:36;;;;;;;3.30;3.03;;;24.90;92.80;;;24.71;43.48;101458.63;4994352;28;100487;-44
2022/08/11 14:51:04;;;;;;;3.15;2.95;;;24.80;92.80;;;24.92;42.64;101451.47;4985300;28;98151;-49
2022/08/11 14:53:31;;;;;;;3.28;2.90;;;25.00;92.30;;;24.94;43.05;101457.59;4999095;28;97374;-45
2022/08/11 14:58:42;;;;;;;5.90;2.50;;;25.00;92.70;;;25.18;42.66;101460.13;4993822;28;101574;-52
2022/08/11 15:03:09;;;;;;;3.45;2.97;;;25.20;92.20;;;25.21;42.41;101454.44;4990833;28;97513;-53
2022/08/11 15:03:58;;;;;;;2.80;2.60;;;25.30;92.20;;;25.19;42.52;101457.28;5003125;28;97006;-50
2022/08/11 15:06:27;;;;;;;3.97;2.75;;;25.40;92.00;;;25.19;42.34;101445.63;5003592;28;97261;-49
2022/08/11 15:08:53;;;;;;;5.35;3.00;;;25.30;92.10;;;26.02;31.96;101442.03;4991052;28;97203;-52
2022/08/11 15:17:06;;;;;;;3.00;2.70;;;25.70;91.10;;;25.42;41.40;101435.53;4996612;28;97253;-48
2022/08/11 15:17:10;;;;;;;2.78;2.58;;;25.60;91.00;;;25.14;42.46;101437.91;5008216;28;97472;-45
2022/08/11 15:25:10;;;;;;;2.97;2.78;;;25.00;92.30;;;24.59;43.52;101426.31;4996747;28;97199;-45
2022/08/11 15:39:21;;;;;;;3.58;3.28;;;24.50;92.90;;;24.54;43.49;101412.34;4986272;28;96952;-43
2022/08/11 15:47:48;;;;;;;3.95;3.20;;;24.50;93.20;;;24.55;43.86;101400.56;5002837;28;97451;-44